Time;durP1;ratioP1;P1;durP2;ratioP2;P2;SDS_P1;SDS_P2;PMS_P1;PMS_P2;Temp;Humidity;BMP_temperature;BMP_pressure;BME280_temperature;BME280_humidity;BME280_pressure;Samples;Min_cycle;Max_cycle;Signal;HPM_P1;HPM_P2
2021/11/13 00:00:33;;;;;;;43.27;23.47;;;;;;;0.11;100.00;96890.88;2056647;28;20133;-74
2021/11/13 00:01:34;;;;;;;39.58;21.77;;;;;;;0.04;100.00;96890.34;2057141;28;20392;-74
2021/11/13 00:02:35;;;;;;;39.70;23.13;;;;;;;0.02;100.00;96897.78;2065214;28;20058;-74
2021/11/13 00:03:35;;;;;;;43.63;23.30;;;;;;;0.04;100.00;96895.66;2065019;28;20085;-74
2021/11/13 00:04:36;;;;;;;46.60;24.33;;;;;;;0.05;100.00;96893.81;2065179;28;20532;-74
2021/11/13 00:05:36;;;;;;;44.83;23.98;;;;;;;0.07;100.00;96892.50;2065699;28;20023;-75
2021/11/13 00:06:37;;;;;;;45.43;24.00;;;;;;;0.09;100.00;96900.97;2065618;28;20034;-74
2021/11/13 00:07:38;;;;;;;46.43;23.93;;;;;;;0.13;100.00;96895.94;2066297;28;20399;-74
2021/11/13 00:08:38;;;;;;;44.13;24.13;;;;;;;0.13;100.00;96899.41;2058655;28;20094;-75
2021/11/13 00:09:39;;;;;;;41.25;23.60;;;;;;;0.10;100.00;96897.25;2066531;28;20029;-74
2021/11/13 00:10:40;;;;;;;42.03;22.50;;;;;;;0.11;100.00;96901.53;2066241;28;20431;-75
2021/11/13 00:11:41;;;;;;;42.33;22.48;;;;;;;0.10;100.00;96904.44;2066573;28;20117;-74
2021/11/13 00:12:43;;;;;;;43.08;22.95;;;;;;;0.10;100.00;96909.78;2066601;28;20026;-75
2021/11/13 00:13:44;;;;;;;37.60;21.02;;;;;;;0.08;100.00;96904.69;2067152;28;20115;-75
2021/11/13 00:14:46;;;;;;;33.40;19.33;;;;;;;0.04;100.00;96903.66;2066549;28;20022;-74
2021/11/13 00:15:47;;;;;;;33.63;19.23;;;;;;;0.03;100.00;96907.38;2066544;28;20030;-74
2021/11/13 00:16:47;;;;;;;33.53;19.45;;;;;;;-0.02;100.00;96913.50;2067178;28;20256;-74
2021/11/13 00:17:49;;;;;;;36.37;19.87;;;;;;;-0.03;100.00;96909.25;2067129;28;20037;-74
2021/11/13 00:18:50;;;;;;;33.55;19.55;;;;;;;-0.05;100.00;96905.25;2067183;28;20022;-74
2021/11/13 00:19:50;;;;;;;35.47;20.02;;;;;;;-0.10;100.00;96908.69;2066521;28;20100;-74
2021/11/13 00:20:50;;;;;;;34.05;19.77;;;;;;;-0.12;100.00;96908.16;2066155;28;20030;-74
2021/11/13 00:21:51;;;;;;;35.30;19.97;;;;;;;-0.20;100.00;96907.88;2067093;28;20377;-74
2021/11/13 00:22:51;;;;;;;31.27;17.70;;;;;;;-0.27;100.00;96920.63;2067211;28;20399;-74
2021/11/13 00:23:51;;;;;;;32.03;19.03;;;;;;;-0.27;100.00;96913.47;2067106;28;20034;-75
2021/11/13 00:24:52;;;;;;;32.95;19.92;;;;;;;-0.27;100.00;96917.97;2066250;28;20785;-74
2021/11/13 00:25:52;;;;;;;31.67;18.20;;;;;;;-0.30;100.00;96915.84;2066524;28;20428;-74
2021/11/13 00:26:52;;;;;;;32.23;17.97;;;;;;;-0.26;100.00;96928.34;2066436;28;20037;-75
2021/11/13 00:27:53;;;;;;;31.53;18.10;;;;;;;-0.23;100.00;96930.50;2058460;28;20058;-74
2021/11/13 00:28:53;;;;;;;33.75;19.13;;;;;;;-0.27;100.00;96928.63;2058314;28;20102;-74
2021/11/13 00:29:53;;;;;;;31.35;18.85;;;;;;;-0.30;100.00;96929.16;2066424;28;20034;-74
2021/11/13 00:30:54;;;;;;;34.00;18.83;;;;;;;-0.29;100.00;96920.91;2066027;28;20023;-74
2021/11/13 00:31:54;;;;;;;34.17;19.23;;;;;;;-0.28;100.00;96919.03;2058329;28;20144;-75
2021/11/13 00:32:54;;;;;;;37.17;20.27;;;;;;;-0.30;100.00;96923.84;2058341;28;20033;-75
2021/11/13 00:33:55;;;;;;;35.90;20.00;;;;;;;-0.29;100.00;96922.78;2058305;28;20026;-74
2021/11/13 00:34:55;;;;;;;36.83;18.75;;;;;;;-0.32;100.00;96925.94;2058246;28;20473;-74
2021/11/13 00:35:56;;;;;;;34.57;19.90;;;;;;;-0.31;100.00;96925.69;2066384;28;20030;-74
2021/11/13 00:36:56;;;;;;;35.13;19.37;;;;;;;-0.33;100.00;96930.47;2066394;28;20026;-75
2021/11/13 00:37:57;;;;;;;34.58;19.38;;;;;;;-0.36;100.00;96930.22;2066433;28;20023;-74
2021/11/13 00:38:57;;;;;;;33.70;18.80;;;;;;;-0.40;100.00;96924.59;2066432;28;20138;-74
2021/11/13 00:39:58;;;;;;;33.03;18.67;;;;;;;-0.38;100.00;96927.00;2066948;28;20487;-76
2021/11/13 00:40:58;;;;;;;32.55;19.00;;;;;;;-0.43;100.00;96923.25;2066800;28;20031;-74
2021/11/13 00:41:58;;;;;;;35.23;19.53;;;;;;;-0.44;100.00;96926.19;2066290;28;20030;-75
2021/11/13 00:42:59;;;;;;;33.70;18.63;;;;;;;-0.42;100.00;96921.41;2066373;28;20022;-74
2021/11/13 00:43:59;;;;;;;33.20;18.40;;;;;;;-0.47;100.00;96927.50;2066281;28;20057;-75
2021/11/13 00:45:00;;;;;;;34.30;18.75;;;;;;;-0.50;100.00;96933.34;2066257;28;20053;-74
2021/11/13 00:46:00;;;;;;;34.37;19.37;;;;;;;-0.49;100.00;96932.28;2066374;28;20113;-75
2021/11/13 00:47:01;;;;;;;32.97;17.97;;;;;;;-0.48;100.00;96928.56;2066283;28;20057;-74
2021/11/13 00:48:02;;;;;;;35.05;17.90;;;;;;;-0.51;100.00;96926.44;2066287;28;20374;-75
2021/11/13 00:49:05;;;;;;;35.63;18.60;;;;;;;-0.52;100.00;96929.38;2066235;28;20105;-75
2021/11/13 00:50:06;;;;;;;35.92;18.88;;;;;;;-0.47;100.00;96932.03;2066040;28;20018;-75
2021/11/13 00:51:07;;;;;;;41.60;17.43;;;;;;;-0.53;100.00;96927.75;2066891;28;20481;-74
2021/11/13 00:52:07;;;;;;;84.70;19.67;;;;;;;-0.55;100.00;96932.53;2066895;28;20674;-74
2021/11/13 00:53:08;;;;;;;37.40;17.60;;;;;;;-0.64;100.00;96934.88;2066884;28;20033;-75
2021/11/13 00:54:08;;;;;;;39.77;19.60;;;;;;;-0.61;100.00;96931.72;2066191;28;20026;-74
2021/11/13 00:55:11;;;;;;;39.67;18.30;;;;;;;-0.56;100.00;96936.25;2058267;28;20093;-75
2021/11/13 00:56:11;;;;;;;50.43;19.23;;;;;;;-0.57;100.00;96932.78;2066523;28;20069;-74
2021/11/13 00:57:12;;;;;;;39.30;19.35;;;;;;;-0.56;100.00;96936.25;2066923;28;20268;-74
2021/11/13 00:58:12;;;;;;;38.03;19.70;;;;;;;-0.52;100.00;96932.81;2066833;28;20038;-75
2021/11/13 00:59:14;;;;;;;40.23;18.30;;;;;;;-0.50;100.00;96927.25;2066837;28;20026;-74
2021/11/13 01:00:17;;;;;;;42.47;18.45;;;;;;;-0.51;100.00;96918.47;2065768;28;20121;-74
2021/11/13 01:01:18;;;;;;;103.47;20.38;;;;;;;-0.52;100.00;96924.03;2058491;28;20402;-74
2021/11/13 01:02:18;;;;;;;102.40;20.40;;;;;;;-0.48;100.00;96917.94;2066274;28;20022;-74
2021/11/13 01:03:19;;;;;;;43.57;16.83;;;;;;;-0.45;100.00;96909.44;2066126;28;20036;-75
2021/11/13 01:04:20;;;;;;;53.08;17.65;;;;;;;-0.46;100.00;96912.38;2066190;28;20030;-74
2021/11/13 01:05:20;;;;;;;60.43;18.57;;;;;;;-0.49;100.00;96907.56;2066098;28;20035;-74
2021/11/13 01:06:20;;;;;;;57.30;17.17;;;;;;;-0.50;100.00;96906.75;2066026;28;20069;-74
2021/11/13 01:07:21;;;;;;;47.67;18.70;;;;;;;-0.50;100.00;96906.75;2066129;28;20022;-74
2021/11/13 01:08:21;;;;;;;81.70;19.80;;;;;;;-0.59;100.00;96902.22;2058028;28;20289;-75
2021/11/13 01:09:21;;;;;;;44.87;17.60;;;;;;;-0.60;100.00;96913.91;2058090;28;20033;-75
2021/11/13 01:10:22;;;;;;;75.27;19.47;;;;;;;-0.64;100.00;96916.28;2057805;28;20528;-74
2021/11/13 01:11:22;;;;;;;61.63;19.17;;;;;;;-0.64;100.00;96918.94;2066276;28;20060;-75
2021/11/13 01:12:23;;;;;;;62.35;18.90;;;;;;;-0.59;100.00;96916.31;2066174;28;20022;-75
2021/11/13 01:13:24;;;;;;;44.42;17.75;;;;;;;-0.55;100.00;96920.03;2066022;28;20029;-75
2021/11/13 01:14:25;;;;;;;41.20;18.08;;;;;;;-0.53;100.00;96914.47;2058047;28;20018;-75
2021/11/13 01:15:25;;;;;;;43.15;17.52;;;;;;;-0.52;100.00;96914.22;2058069;28;20025;-75
2021/11/13 01:16:26;;;;;;;42.87;18.03;;;;;;;-0.49;100.00;96918.19;2058051;28;20531;-74
2021/11/13 01:17:27;;;;;;;47.97;18.38;;;;;;;-0.53;100.00;96914.47;2066106;28;20113;-74
2021/11/13 01:18:27;;;;;;;48.97;18.57;;;;;;;-0.51;100.00;96923.00;2065832;28;20026;-75
2021/11/13 01:19:27;;;;;;;41.57;16.83;;;;;;;-0.54;100.00;96920.84;2057962;28;20027;-75
2021/11/13 01:20:29;;;;;;;30.83;16.10;;;;;;;-0.49;100.00;96932.28;2065714;28;20077;-75
2021/11/13 01:21:30;;;;;;;41.20;17.10;;;;;;;-0.42;100.00;96932.84;2066693;28;20022;-75
2021/11/13 01:22:31;;;;;;;47.15;17.70;;;;;;;-0.43;100.00;96941.09;2065941;28;20153;-74
2021/11/13 01:23:32;;;;;;;36.97;16.58;;;;;;;-0.51;100.00;96942.41;2066190;28;20027;-75
2021/11/13 01:24:33;;;;;;;37.08;16.83;;;;;;;-0.50;100.00;96948.53;2065891;28;20034;-74
2021/11/13 01:25:34;;;;;;;39.40;18.30;;;;;;;-0.55;100.00;96949.28;2058145;28;20073;-74
2021/11/13 01:26:35;;;;;;;39.53;18.08;;;;;;;-0.48;100.00;96954.34;2066197;28;20259;-74
2021/11/13 01:27:35;;;;;;;38.35;19.08;;;;;;;-0.45;100.00;96953.84;2066630;28;20081;-74
2021/11/13 01:28:36;;;;;;;41.03;18.53;;;;;;;-0.50;100.00;96954.59;2066069;28;20053;-74
2021/11/13 01:29:36;;;;;;;38.40;18.20;;;;;;;-0.49;100.00;96952.75;2066007;28;20472;-74
2021/11/13 01:30:37;;;;;;;45.78;17.95;;;;;;;-0.46;100.00;96957.56;2065688;28;20361;-75
2021/11/13 01:31:37;;;;;;;46.17;18.07;;;;;;;-0.43;100.00;96957.81;2066754;28;20030;-75
2021/11/13 01:32:38;;;;;;;41.90;16.23;;;;;;;-0.46;100.00;96961.03;2066634;28;20018;-75
2021/11/13 01:33:38;;;;;;;37.88;17.25;;;;;;;-0.48;100.00;96964.97;2066692;28;20031;-75
2021/11/13 01:34:40;;;;;;;51.83;16.50;;;;;;;-0.47;100.00;96963.94;2066614;28;20038;-75
2021/11/13 01:35:40;;;;;;;43.47;17.10;;;;;;;-0.48;100.00;96970.31;2066570;28;20014;-74
2021/11/13 01:36:40;;;;;;;38.43;16.80;;;;;;;-0.43;100.00;96967.69;2065925;28;20030;-75
2021/11/13 01:37:41;;;;;;;52.35;18.05;;;;;;;-0.46;100.00;96965.53;2057899;28;20027;-75
2021/11/13 01:38:42;;;;;;;44.47;18.70;;;;;;;-0.42;100.00;96962.06;2065980;28;20050;-75
2021/11/13 01:39:42;;;;;;;42.53;17.13;;;;;;;-0.40;100.00;96967.94;2065816;28;20040;-75
2021/11/13 01:40:44;;;;;;;81.00;18.10;;;;;;;-0.41;100.00;96968.19;2057494;28;20544;-75
2021/11/13 01:41:46;;;;;;;44.75;17.60;;;;;;;-0.37;100.00;96968.50;2066049;28;20031;-75
2021/11/13 01:42:47;;;;;;;56.35;16.95;;;;;;;-0.42;100.00;96964.75;2065941;28;20030;-74
2021/11/13 01:43:48;;;;;;;64.63;18.00;;;;;;;-0.42;100.00;96969.25;2057838;28;20027;-75
2021/11/13 01:44:48;;;;;;;40.55;17.17;;;;;;;-0.38;100.00;96969.53;2065760;28;20038;-74
2021/11/13 01:45:49;;;;;;;50.67;17.33;;;;;;;-0.38;100.00;96966.88;2066572;28;20026;-74
2021/11/13 01:46:49;;;;;;;76.55;17.67;;;;;;;-0.37;100.00;96965.84;2065907;28;20034;-74
2021/11/13 01:47:50;;;;;;;47.00;17.10;;;;;;;-0.42;100.00;96970.06;2065947;28;20037;-74
2021/11/13 01:48:51;;;;;;;65.43;17.80;;;;;;;-0.42;100.00;96964.75;2065816;28;20121;-74
2021/11/13 01:49:51;;;;;;;57.92;17.90;;;;;;;-0.45;100.00;96967.94;2065960;28;20061;-75
2021/11/13 01:50:52;;;;;;;73.23;17.97;;;;;;;-0.44;100.00;96968.75;2065403;28;20096;-74
2021/11/13 01:51:52;;;;;;;53.30;18.73;;;;;;;-0.43;100.00;96968.44;2057813;28;20023;-74
2021/11/13 01:52:54;;;;;;;60.05;17.33;;;;;;;-0.45;100.00;96967.13;2065827;28;20029;-75
2021/11/13 01:53:59;;;;;;;50.67;17.65;;;;;;;-0.40;100.00;96965.28;2066437;28;20093;-74
2021/11/13 01:55:00;;;;;;;62.95;17.40;;;;;;;-0.38;100.00;96961.56;2066392;28;20029;-74
2021/11/13 01:56:00;;;;;;;86.00;18.97;;;;;;;-0.45;100.00;96961.81;2065789;28;20100;-75
2021/11/13 01:57:02;;;;;;;39.20;17.50;;;;;;;-0.40;100.00;96957.31;2057760;28;20477;-75
2021/11/13 01:58:05;;;;;;;39.88;16.98;;;;;;;-0.35;100.00;96953.84;2065875;28;20109;-74
2021/11/13 01:59:08;;;;;;;51.67;18.10;;;;;;;-0.35;100.00;96961.81;2065697;28;20055;-75
2021/11/13 02:00:09;;;;;;;44.75;16.67;;;;;;;-0.32;100.00;96955.19;2057579;28;20421;-74
2021/11/13 02:01:09;;;;;;;74.97;16.77;;;;;;;-0.41;100.00;96949.59;2057693;28;20097;-75
2021/11/13 02:02:10;;;;;;;49.00;17.53;;;;;;;-0.32;100.00;96955.19;2065769;28;20026;-74
2021/11/13 02:03:11;;;;;;;59.43;17.53;;;;;;;-0.35;100.00;96953.06;2065734;28;20105;-75
2021/11/13 02:04:11;;;;;;;60.55;17.20;;;;;;;-0.34;100.00;96944.81;2065759;28;20065;-75
2021/11/13 02:05:12;;;;;;;43.77;17.60;;;;;;;-0.30;100.00;96940.59;2065654;28;20034;-74
2021/11/13 02:06:17;;;;;;;39.40;16.92;;;;;;;-0.29;100.00;96936.88;2057581;28;20424;-74
2021/11/13 02:07:17;;;;;;;44.03;17.23;;;;;;;-0.26;100.00;96938.19;2065718;28;20026;-75
2021/11/13 02:08:18;;;;;;;42.28;16.63;;;;;;;-0.23;100.00;96940.34;2066362;28;20270;-74
2021/11/13 02:09:19;;;;;;;90.60;19.13;;;;;;;-0.32;100.00;96939.25;2065748;28;20026;-75
2021/11/13 02:10:20;;;;;;;59.23;15.70;;;;;;;-0.33;100.00;96930.47;2057341;28;20473;-75
2021/11/13 02:11:24;;;;;;;95.68;18.50;;;;;;;-0.35;100.00;96934.44;2065800;28;20427;-74
2021/11/13 02:12:24;;;;;;;67.55;17.98;;;;;;;-0.36;100.00;96935.53;2066282;28;20033;-75
2021/11/13 02:13:25;;;;;;;90.67;17.17;;;;;;;-0.41;100.00;96930.97;2065700;28;20022;-74
2021/11/13 02:14:29;;;;;;;88.43;17.30;;;;;;;-0.36;100.00;96943.50;2065659;28;20121;-74
2021/11/13 02:15:30;;;;;;;45.33;15.75;;;;;;;-0.34;100.00;96936.84;2065642;28;20022;-74
2021/11/13 02:16:31;;;;;;;83.28;17.20;;;;;;;-0.37;100.00;96928.59;2065714;28;20092;-75
2021/11/13 02:17:31;;;;;;;69.87;18.10;;;;;;;-0.39;100.00;96926.22;2066260;28;20022;-74
2021/11/13 02:18:32;;;;;;;127.60;19.13;;;;;;;-0.40;100.00;96935.22;2066235;28;20022;-74
2021/11/13 02:19:32;;;;;;;59.58;16.35;;;;;;;-0.41;100.00;96925.66;2066276;28;20442;-74
2021/11/13 02:20:37;;;;;;;69.77;16.83;;;;;;;-0.38;100.00;96932.31;2065900;28;20433;-75
2021/11/13 02:21:37;;;;;;;50.35;15.98;;;;;;;-0.38;100.00;96935.78;2066409;28;20088;-75
2021/11/13 02:22:38;;;;;;;63.77;16.87;;;;;;;-0.36;100.00;96938.97;2066187;28;20030;-74
2021/11/13 02:23:41;;;;;;;71.20;17.23;;;;;;;-0.36;100.00;96944.31;2066218;28;20031;-74
2021/11/13 02:24:45;;;;;;;71.97;17.73;;;;;;;-0.39;100.00;96950.13;2066130;28;20110;-75
2021/11/13 02:25:48;;;;;;;43.72;16.02;;;;;;;-0.34;100.00;96958.13;2065436;28;20032;-75
2021/11/13 02:26:48;;;;;;;57.03;15.77;;;;;;;-0.37;100.00;96963.16;2065563;28;20562;-75
2021/11/13 02:27:49;;;;;;;56.93;17.30;;;;;;;-0.40;100.00;96959.97;2065496;28;20443;-74
2021/11/13 02:28:50;;;;;;;54.13;16.58;;;;;;;-0.35;100.00;96955.72;2065623;28;20105;-74
2021/11/13 02:29:50;;;;;;;45.37;15.33;;;;;;;-0.34;100.00;96947.47;2065546;28;20022;-74
2021/11/13 02:30:54;;;;;;;66.03;17.27;;;;;;;-0.36;100.00;96952.28;2065761;28;20311;-74
2021/11/13 02:31:55;;;;;;;41.65;16.38;;;;;;;-0.32;100.00;96955.19;2066170;28;20026;-75
2021/11/13 02:32:56;;;;;;;34.57;15.83;;;;;;;-0.28;100.00;96953.59;2065440;28;20097;-75
2021/11/13 02:33:56;;;;;;;43.15;15.07;;;;;;;-0.29;100.00;96947.50;2065563;28;20259;-74
2021/11/13 02:34:56;;;;;;;56.33;16.37;;;;;;;-0.35;100.00;96947.72;2065984;28;20034;-75
2021/11/13 02:35:58;;;;;;;44.65;15.50;;;;;;;-0.32;100.00;96957.84;2066121;28;20054;-74
2021/11/13 02:36:58;;;;;;;55.80;16.20;;;;;;;-0.36;100.00;96949.63;2066091;28;20030;-74
2021/11/13 02:38:19;;;;;;;56.40;16.20;;;;;;;-0.37;100.00;96956.00;2065327;28;20774;-74
2021/11/13 02:39:20;;;;;;;51.65;15.18;;;;;;;-0.36;100.00;96957.59;2065895;28;20025;-74
2021/11/13 02:40:21;;;;;;;44.97;15.53;;;;;;;-0.33;100.00;96954.41;2065906;28;20058;-75
2021/11/13 02:41:22;;;;;;;74.97;16.90;;;;;;;-0.36;100.00;96957.59;2065531;28;20019;-75
2021/11/13 02:42:23;;;;;;;36.63;15.65;;;;;;;-0.33;100.00;96954.41;2065493;28;20030;-75
2021/11/13 02:43:25;;;;;;;62.67;15.97;;;;;;;-0.35;100.00;96955.72;2066024;28;20032;-74
2021/11/13 02:44:26;;;;;;;40.28;15.40;;;;;;;-0.30;100.00;96967.19;2065383;28;20022;-75
2021/11/13 02:45:27;;;;;;;33.92;15.10;;;;;;;-0.30;100.00;96961.88;2057333;28;20614;-75
2021/11/13 02:46:27;;;;;;;38.10;16.10;;;;;;;-0.27;100.00;96957.88;2065469;28;20495;-75
2021/11/13 02:47:28;;;;;;;64.47;16.80;;;;;;;-0.37;100.00;96963.97;2065410;28;20303;-75
2021/11/13 02:48:31;;;;;;;65.10;15.77;;;;;;;-0.43;100.00;96960.47;2057299;28;20089;-74
2021/11/13 02:49:32;;;;;;;49.15;15.38;;;;;;;-0.40;100.00;96962.63;2065463;28;20105;-74
2021/11/13 02:50:32;;;;;;;47.42;15.52;;;;;;;-0.42;100.00;96969.25;2065722;28;20034;-74
2021/11/13 02:51:33;;;;;;;48.33;17.50;;;;;;;-0.38;100.00;96966.88;2066009;28;20084;-74
2021/11/13 02:52:45;;;;;;;45.23;15.97;;;;;;;-0.45;100.00;96967.94;2066031;28;20023;-75
2021/11/13 02:53:49;;;;;;;67.15;16.95;;;;;;;-0.43;100.00;96967.69;2065992;28;20101;-75
2021/11/13 02:54:52;;;;;;;53.90;15.77;;;;;;;-0.46;100.00;96968.19;2066009;28;20112;-74
2021/11/13 02:55:54;;;;;;;81.80;17.08;;;;;;;-0.50;100.00;96965.25;2065353;28;20053;-74
2021/11/13 02:56:54;;;;;;;148.57;18.27;;;;;;;-0.54;100.00;96974.00;2065335;28;20026;-75
2021/11/13 02:57:55;;;;;;;94.57;16.87;;;;;;;-0.52;100.00;96964.72;2065342;28;20029;-74
2021/11/13 02:58:55;;;;;;;106.45;17.65;;;;;;;-0.49;100.00;96964.19;2065314;28;20025;-74
2021/11/13 02:59:56;;;;;;;108.13;19.58;;;;;;;-0.48;100.00;96965.78;2066050;28;20034;-74
2021/11/13 03:01:01;;;;;;;136.40;19.10;;;;;;;-0.46;100.00;96966.34;2065083;28;20041;-74
2021/11/13 03:02:02;;;;;;;97.70;18.70;;;;;;;-0.47;100.00;96958.63;2057813;28;20544;-75
2021/11/13 03:03:02;;;;;;;90.30;17.00;;;;;;;-0.46;100.00;96961.03;2057220;28;20415;-74
2021/11/13 03:04:03;;;;;;;89.13;17.38;;;;;;;-0.44;100.00;96956.25;2065265;28;20026;-75
2021/11/13 03:05:05;;;;;;;61.83;17.23;;;;;;;-0.44;100.00;96966.88;2065836;28;20038;-74
2021/11/13 03:06:13;;;;;;;82.75;18.10;;;;;;;-0.45;100.00;96967.94;2065918;28;20450;-74
2021/11/13 03:07:13;;;;;;;108.47;16.48;;;;;;;-0.48;100.00;96964.97;2065021;28;20045;-74
2021/11/13 03:08:20;;;;;;;101.87;17.20;;;;;;;-0.46;100.00;96962.88;2065309;28;20030;-75
2021/11/13 03:09:21;;;;;;;71.47;16.70;;;;;;;-0.48;100.00;96955.16;2065868;28;20105;-75
2021/11/13 03:10:24;;;;;;;57.50;15.57;;;;;;;-0.45;100.00;96959.16;2064877;28;20037;-75
2021/11/13 03:11:25;;;;;;;34.75;14.10;;;;;;;-0.44;100.00;96963.41;2065213;28;20023;-74
2021/11/13 03:12:25;;;;;;;42.67;16.17;;;;;;;-0.47;100.00;96955.94;2065259;28;20479;-75
2021/11/13 03:13:26;;;;;;;63.03;16.85;;;;;;;-0.50;100.00;96953.84;2065237;28;20279;-75
2021/11/13 03:14:26;;;;;;;55.70;16.27;;;;;;;-0.54;100.00;96956.19;2065161;28;20444;-77
2021/11/13 03:15:27;;;;;;;43.63;15.67;;;;;;;-0.56;100.00;96950.34;2065096;28;20034;-75
2021/11/13 03:16:28;;;;;;;44.70;14.20;;;;;;;-0.60;100.00;96957.25;2065208;28;20117;-75
2021/11/13 03:17:28;;;;;;;56.53;15.20;;;;;;;-0.60;100.00;96959.09;2065800;28;20056;-75
2021/11/13 03:18:29;;;;;;;75.47;15.60;;;;;;;-0.65;100.00;96948.47;2065871;28;20133;-75
2021/11/13 03:19:32;;;;;;;104.15;17.05;;;;;;;-0.65;100.00;96956.44;2065185;28;20081;-75
2021/11/13 03:20:32;;;;;;;58.65;15.85;;;;;;;-0.68;100.00;96955.09;2064859;28;20105;-75
2021/11/13 03:21:32;;;;;;;59.10;16.00;;;;;;;-0.73;100.00;96949.75;2065166;28;20026;-75
2021/11/13 03:22:34;;;;;;;73.53;16.33;;;;;;;-0.71;100.00;96955.59;2065137;28;20460;-75
2021/11/13 03:23:39;;;;;;;50.15;15.50;;;;;;;-0.74;100.00;96950.00;2065867;28;20026;-74
2021/11/13 03:24:40;;;;;;;59.53;15.00;;;;;;;-0.75;100.00;96954.53;2065730;28;20034;-75
2021/11/13 03:25:48;;;;;;;36.63;15.00;;;;;;;-0.69;100.00;96950.03;2065092;28;20025;-75
2021/11/13 03:26:49;;;;;;;34.10;14.25;;;;;;;-0.74;100.00;96948.16;2065284;28;20034;-73
2021/11/13 03:27:55;;;;;;;56.42;16.45;;;;;;;-0.77;100.00;96939.91;2065133;28;20022;-74
2021/11/13 03:29:04;;;;;;;39.90;15.95;;;;;;;-0.75;100.00;96951.06;2057773;28;20123;-74
2021/11/13 03:30:06;;;;;;;51.77;14.40;;;;;;;-0.73;100.00;96949.75;2057856;28;20027;-75
2021/11/13 03:31:07;;;;;;;44.08;15.00;;;;;;;-0.69;100.00;96950.03;2057332;28;20264;-75
2021/11/13 03:32:08;;;;;;;27.60;14.23;;;;;;;-0.69;100.00;96950.81;2065371;28;20022;-75
2021/11/13 03:33:08;;;;;;;34.20;14.85;;;;;;;-0.69;100.00;96948.16;2065085;28;20022;-75
2021/11/13 03:34:10;;;;;;;36.80;14.73;;;;;;;-0.69;100.00;96955.34;2065191;28;20022;-75
2021/11/13 03:35:13;;;;;;;34.10;13.90;;;;;;;-0.72;100.00;96945.25;2065062;28;20041;-74
2021/11/13 03:36:16;;;;;;;31.80;13.38;;;;;;;-0.76;100.00;96936.97;2065205;28;20034;-75
2021/11/13 03:37:18;;;;;;;34.33;14.15;;;;;;;-0.77;100.00;96940.69;2065755;28;20423;-74
2021/11/13 03:38:18;;;;;;;25.42;13.63;;;;;;;-0.73;100.00;96941.00;2065765;28;20084;-75
2021/11/13 03:39:18;;;;;;;27.60;13.83;;;;;;;-0.81;100.00;96944.94;2065889;28;20034;-75
2021/11/13 03:40:19;;;;;;;23.93;13.40;;;;;;;-0.76;100.00;96944.16;2064765;28;20112;-74
2021/11/13 03:41:21;;;;;;;21.90;12.83;;;;;;;-0.74;100.00;96940.19;2057833;28;20031;-74
2021/11/13 03:42:24;;;;;;;25.08;14.10;;;;;;;-0.76;100.00;96936.97;2058843;28;20260;-73
2021/11/13 03:43:25;;;;;;;23.50;13.50;;;;;;;-0.73;100.00;96939.13;2066876;28;20022;-74
2021/11/13 03:44:25;;;;;;;22.55;13.13;;;;;;;-0.73;100.00;96935.69;2067448;28;20026;-75
2021/11/13 03:45:26;;;;;;;24.50;14.20;;;;;;;-0.73;100.00;96930.34;2066646;28;20409;-75
2021/11/13 03:46:26;;;;;;;22.77;13.88;;;;;;;-0.74;100.00;96934.88;2066800;28;20066;-74
2021/11/13 03:47:27;;;;;;;24.47;14.80;;;;;;;-0.81;100.00;96931.66;2066899;28;20117;-74
2021/11/13 03:48:27;;;;;;;25.93;14.40;;;;;;;-0.72;100.00;96939.94;2058640;28;20469;-74
2021/11/13 03:49:27;;;;;;;22.83;13.20;;;;;;;-0.74;100.00;96934.88;2066805;28;20626;-74
2021/11/13 03:50:28;;;;;;;23.73;14.17;;;;;;;-0.69;100.00;96936.75;2058549;28;20027;-75
2021/11/13 03:51:29;;;;;;;25.02;14.88;;;;;;;-0.67;100.00;96938.09;2058739;28;20054;-74
2021/11/13 03:52:29;;;;;;;26.33;14.47;;;;;;;-0.68;100.00;96935.69;2066740;28;20023;-74
2021/11/13 03:53:29;;;;;;;23.30;13.77;;;;;;;-0.68;100.00;96941.00;2067344;28;20542;-74
2021/11/13 03:54:31;;;;;;;25.27;13.87;;;;;;;-0.66;100.00;96939.69;2066940;28;20030;-73
2021/11/13 03:55:32;;;;;;;25.23;13.63;;;;;;;-0.63;100.00;96933.84;2058751;28;20023;-75
2021/11/13 03:56:33;;;;;;;26.52;14.73;;;;;;;-0.61;100.00;96939.69;2066795;28;20038;-75
2021/11/13 03:57:33;;;;;;;23.73;14.33;;;;;;;-0.60;100.00;96930.66;2066671;28;20058;-75
2021/11/13 03:58:34;;;;;;;25.05;14.02;;;;;;;-0.57;100.00;96932.78;2066821;28;20101;-74
2021/11/13 03:59:34;;;;;;;23.17;13.53;;;;;;;-0.58;100.00;96927.75;2067309;28;20030;-74
2021/11/13 04:00:35;;;;;;;23.10;13.67;;;;;;;-0.57;100.00;96927.47;2067130;28;20110;-74
2021/11/13 04:01:36;;;;;;;24.15;14.57;;;;;;;-0.56;100.00;96929.06;2067357;28;20630;-74
2021/11/13 04:02:36;;;;;;;26.63;14.50;;;;;;;-0.54;100.00;96934.94;2066724;28;20512;-74
2021/11/13 04:03:36;;;;;;;24.30;14.63;;;;;;;-0.52;100.00;96932.81;2066733;28;20117;-74
2021/11/13 04:04:39;;;;;;;26.13;14.77;;;;;;;-0.53;100.00;96928.56;2066854;28;20030;-74
2021/11/13 04:05:39;;;;;;;25.73;15.65;;;;;;;-0.49;100.00;96934.94;2072172;28;20083;-75
2021/11/13 04:06:40;;;;;;;27.67;15.07;;;;;;;-0.55;100.00;96936.00;2074839;28;20030;-75
2021/11/13 04:07:41;;;;;;;26.27;14.68;;;;;;;-0.48;100.00;96935.75;2067096;28;20670;-75
2021/11/13 04:08:41;;;;;;;25.55;14.93;;;;;;;-0.48;100.00;96931.22;2058674;28;20113;-74
2021/11/13 04:09:42;;;;;;;28.13;15.60;;;;;;;-0.48;100.00;96933.88;2066820;28;20092;-74
2021/11/13 04:10:42;;;;;;;26.37;15.60;;;;;;;-0.40;100.00;96944.00;2066372;28;20032;-74
2021/11/13 04:11:43;;;;;;;26.20;15.60;;;;;;;-0.43;100.00;96938.44;2066644;28;20468;-74
2021/11/13 04:12:44;;;;;;;26.57;15.50;;;;;;;-0.38;100.00;96940.31;2067285;28;20037;-74
2021/11/13 04:13:44;;;;;;;26.23;16.33;;;;;;;-0.33;100.00;96945.63;2067259;28;20027;-75
2021/11/13 04:14:45;;;;;;;28.10;16.17;;;;;;;-0.38;100.00;96941.09;2066668;28;20030;-75
2021/11/13 04:15:46;;;;;;;26.83;15.82;;;;;;;-0.34;100.00;96941.34;2066605;28;20029;-74
2021/11/13 04:16:46;;;;;;;27.42;15.60;;;;;;;-0.32;100.00;96933.94;2067208;28;20036;-74
2021/11/13 04:17:49;;;;;;;27.50;15.95;;;;;;;-0.33;100.00;96929.66;2067275;28;20030;-74
2021/11/13 04:18:51;;;;;;;25.92;15.50;;;;;;;-0.32;100.00;96929.41;2067184;28;20442;-73
2021/11/13 04:19:51;;;;;;;28.30;15.50;;;;;;;-0.31;100.00;96928.34;2066506;28;20412;-75
2021/11/13 04:20:52;;;;;;;26.65;16.02;;;;;;;-0.30;100.00;96924.63;2066388;28;20247;-74
2021/11/13 04:21:53;;;;;;;26.90;15.83;;;;;;;-0.28;100.00;96925.16;2067098;28;20026;-74
2021/11/13 04:22:53;;;;;;;26.75;15.95;;;;;;;-0.30;100.00;96921.97;2067153;28;20019;-74
2021/11/13 04:23:53;;;;;;;27.47;16.37;;;;;;;-0.25;100.00;96923.84;2067172;28;20026;-75
2021/11/13 04:24:54;;;;;;;30.08;16.33;;;;;;;-0.22;100.00;96920.66;2065957;28;20467;-76
2021/11/13 04:25:55;;;;;;;28.48;16.83;;;;;;;-0.21;100.00;96917.72;2066309;28;20058;-74
2021/11/13 04:26:55;;;;;;;29.85;17.15;;;;;;;-0.23;100.00;96916.41;2066467;28;20022;-74
2021/11/13 04:27:56;;;;;;;28.33;16.47;;;;;;;-0.20;100.00;96910.53;2066543;28;20033;-74
2021/11/13 04:28:56;;;;;;;27.73;16.03;;;;;;;-0.19;100.00;96910.28;2066540;28;20035;-75
2021/11/13 04:29:57;;;;;;;26.55;16.15;;;;;;;-0.16;100.00;96906.31;2066417;28;20169;-74
2021/11/13 04:30:57;;;;;;;25.97;15.13;;;;;;;-0.17;100.00;96900.19;2057912;28;20033;-74
2021/11/13 04:31:58;;;;;;;26.53;15.87;;;;;;;-0.11;100.00;96904.44;2066471;28;20068;-74
2021/11/13 04:32:58;;;;;;;28.33;16.80;;;;;;;-0.10;100.00;96903.38;2067075;28;20027;-74
2021/11/13 04:34:02;;;;;;;24.73;14.80;;;;;;;-0.05;100.00;96911.34;2066961;28;20033;-75
2021/11/13 04:36:29;;;;;;;26.35;15.68;;;;;;;0.02;100.00;96900.44;2066766;28;20388;-74
2021/11/13 04:37:29;;;;;;;27.20;15.75;;;;;;;0.03;100.00;96901.25;2066422;28;20030;-74
2021/11/13 04:38:31;;;;;;;24.25;15.25;;;;;;;0.02;100.00;96894.34;2058234;28;20041;-74
2021/11/13 04:39:32;;;;;;;27.85;16.33;;;;;;;0.05;100.00;96899.13;2058362;28;20110;-74